sensor_id;sensor_type;location;lat;lon;timestamp;P1;durP1;ratioP1;P2;durP2;ratioP2
59147;SDS011;44930;52.878;6.168;2023-05-01T00:02:12;4.28;;;2.80;;
59147;SDS011;44930;52.878;6.168;2023-05-01T00:04:38;6.90;;;3.10;;
59147;SDS011;44930;52.878;6.168;2023-05-01T00:07:04;4.68;;;2.92;;
59147;SDS011;44930;52.878;6.168;2023-05-01T00:09:29;3.85;;;2.78;;
59147;SDS011;44930;52.878;6.168;2023-05-01T00:11:56;4.43;;;3.25;;
59147;SDS011;44930;52.878;6.168;2023-05-01T00:14:21;6.78;;;3.47;;
59147;SDS011;44930;52.878;6.168;2023-05-01T00:16:47;18.08;;;5.53;;
59147;SDS011;44930;52.878;6.168;2023-05-01T00:19:12;5.50;;;3.10;;
59147;SDS011;44930;52.878;6.168;2023-05-01T00:21:42;4.68;;;2.95;;
59147;SDS011;44930;52.878;6.168;2023-05-01T00:24:09;5.18;;;3.13;;
59147;SDS011;44930;52.878;6.168;2023-05-01T00:26:35;5.63;;;3.97;;
59147;SDS011;44930;52.878;6.168;2023-05-01T00:29:02;6.22;;;3.40;;
59147;SDS011;44930;52.878;6.168;2023-05-01T00:31:27;7.00;;;3.50;;
59147;SDS011;44930;52.878;6.168;2023-05-01T00:33:53;5.57;;;3.58;;
59147;SDS011;44930;52.878;6.168;2023-05-01T00:36:19;8.48;;;4.00;;
59147;SDS011;44930;52.878;6.168;2023-05-01T00:38:45;10.18;;;5.13;;
59147;SDS011;44930;52.878;6.168;2023-05-01T00:41:10;4.20;;;3.35;;
59147;SDS011;44930;52.878;6.168;2023-05-01T00:43:36;6.80;;;3.72;;
59147;SDS011;44930;52.878;6.168;2023-05-01T00:46:02;6.07;;;3.17;;
59147;SDS011;44930;52.878;6.168;2023-05-01T00:48:27;5.85;;;3.88;;
59147;SDS011;44930;52.878;6.168;2023-05-01T00:50:53;7.85;;;4.22;;
59147;SDS011;44930;52.878;6.168;2023-05-01T00:53:20;4.85;;;3.20;;
59147;SDS011;44930;52.878;6.168;2023-05-01T00:55:47;7.65;;;3.92;;
59147;SDS011;44930;52.878;6.168;2023-05-01T00:58:13;6.55;;;3.53;;
59147;SDS011;44930;52.878;6.168;2023-05-01T01:00:41;7.55;;;3.80;;
59147;SDS011;44930;52.878;6.168;2023-05-01T01:03:07;5.28;;;3.33;;
59147;SDS011;44930;52.878;6.168;2023-05-01T01:05:34;6.63;;;4.07;;
59147;SDS011;44930;52.878;6.168;2023-05-01T01:08:19;7.22;;;3.85;;
59147;SDS011;44930;52.878;6.168;2023-05-01T01:16:27;7.32;;;3.75;;
59147;SDS011;44930;52.878;6.168;2023-05-01T01:22:14;6.35;;;3.75;;
59147;SDS011;44930;52.878;6.168;2023-05-01T01:35:45;8.75;;;3.65;;
59147;SDS011;44930;52.878;6.168;2023-05-01T01:38:19;7.13;;;4.30;;
59147;SDS011;44930;52.878;6.168;2023-05-01T01:40:59;5.88;;;4.30;;
59147;SDS011;44930;52.878;6.168;2023-05-01T01:43:32;7.25;;;4.38;;
59147;SDS011;44930;52.878;6.168;2023-05-01T01:46:04;6.47;;;3.88;;
59147;SDS011;44930;52.878;6.168;2023-05-01T01:48:33;11.05;;;4.50;;
59147;SDS011;44930;52.878;6.168;2023-05-01T01:51:00;8.55;;;4.05;;
59147;SDS011;44930;52.878;6.168;2023-05-01T01:53:32;6.45;;;3.30;;
59147;SDS011;44930;52.878;6.168;2023-05-01T01:56:00;9.45;;;4.55;;
59147;SDS011;44930;52.878;6.168;2023-05-01T01:58:28;7.15;;;4.22;;
59147;SDS011;44930;52.878;6.168;2023-05-01T02:00:55;7.68;;;4.03;;
59147;SDS011;44930;52.878;6.168;2023-05-01T02:03:21;8.30;;;3.70;;
59147;SDS011;44930;52.878;6.168;2023-05-01T02:05:48;10.30;;;4.43;;
59147;SDS011;44930;52.878;6.168;2023-05-01T02:08:14;6.30;;;4.05;;
59147;SDS011;44930;52.878;6.168;2023-05-01T02:10:41;7.50;;;3.92;;
59147;SDS011;44930;52.878;6.168;2023-05-01T02:13:09;6.50;;;4.57;;
59147;SDS011;44930;52.878;6.168;2023-05-01T02:15:36;5.97;;;4.10;;
59147;SDS011;44930;52.878;6.168;2023-05-01T02:18:04;6.93;;;4.82;;
59147;SDS011;44930;52.878;6.168;2023-05-01T02:20:30;10.75;;;4.15;;
59147;SDS011;44930;52.878;6.168;2023-05-01T02:22:57;8.75;;;3.90;;
59147;SDS011;44930;52.878;6.168;2023-05-01T02:25:23;7.57;;;3.90;;
59147;SDS011;44930;52.878;6.168;2023-05-01T02:28:06;9.27;;;3.92;;
59147;SDS011;44930;52.878;6.168;2023-05-01T02:30:36;6.15;;;3.70;;
59147;SDS011;44930;52.878;6.168;2023-05-01T02:33:03;7.15;;;4.35;;
59147;SDS011;44930;52.878;6.168;2023-05-01T02:35:37;6.47;;;4.45;;
59147;SDS011;44930;52.878;6.168;2023-05-01T02:38:08;7.00;;;4.07;;
59147;SDS011;44930;52.878;6.168;2023-05-01T02:40:35;9.98;;;4.90;;
59147;SDS011;44930;52.878;6.168;2023-05-01T02:43:03;7.57;;;4.20;;
59147;SDS011;44930;52.878;6.168;2023-05-01T02:45:32;6.60;;;4.20;;
59147;SDS011;44930;52.878;6.168;2023-05-01T02:48:02;7.90;;;4.55;;
59147;SDS011;44930;52.878;6.168;2023-05-01T02:50:30;11.57;;;4.65;;
59147;SDS011;44930;52.878;6.168;2023-05-01T02:52:56;8.55;;;5.18;;
59147;SDS011;44930;52.878;6.168;2023-05-01T02:55:23;10.90;;;4.25;;
59147;SDS011;44930;52.878;6.168;2023-05-01T02:57:50;7.88;;;4.10;;
59147;SDS011;44930;52.878;6.168;2023-05-01T03:00:16;8.40;;;4.43;;
59147;SDS011;44930;52.878;6.168;2023-05-01T03:02:41;6.15;;;3.95;;
59147;SDS011;44930;52.878;6.168;2023-05-01T03:05:07;11.30;;;4.45;;
59147;SDS011;44930;52.878;6.168;2023-05-01T03:07:33;7.07;;;4.28;;
59147;SDS011;44930;52.878;6.168;2023-05-01T03:10:06;12.32;;;5.82;;
59147;SDS011;44930;52.878;6.168;2023-05-01T03:12:32;5.95;;;4.25;;
59147;SDS011;44930;52.878;6.168;2023-05-01T03:14:57;6.38;;;4.07;;
59147;SDS011;44930;52.878;6.168;2023-05-01T03:17:23;7.38;;;4.82;;
59147;SDS011;44930;52.878;6.168;2023-05-01T03:19:49;7.90;;;4.18;;
59147;SDS011;44930;52.878;6.168;2023-05-01T03:22:15;8.15;;;4.10;;
59147;SDS011;44930;52.878;6.168;2023-05-01T03:24:41;8.57;;;4.75;;
59147;SDS011;44930;52.878;6.168;2023-05-01T03:27:07;8.18;;;4.95;;
59147;SDS011;44930;52.878;6.168;2023-05-01T03:29:32;7.53;;;4.30;;
59147;SDS011;44930;52.878;6.168;2023-05-01T03:31:58;8.35;;;4.30;;
59147;SDS011;44930;52.878;6.168;2023-05-01T03:34:25;8.30;;;4.57;;
59147;SDS011;44930;52.878;6.168;2023-05-01T03:36:51;7.35;;;3.85;;
59147;SDS011;44930;52.878;6.168;2023-05-01T03:39:18;6.50;;;4.10;;
59147;SDS011;44930;52.878;6.168;2023-05-01T03:41:44;9.73;;;4.93;;
59147;SDS011;44930;52.878;6.168;2023-05-01T03:44:09;9.05;;;4.07;;
59147;SDS011;44930;52.878;6.168;2023-05-01T03:46:35;8.10;;;4.95;;
59147;SDS011;44930;52.878;6.168;2023-05-01T03:49:01;7.72;;;4.68;;
59147;SDS011;44930;52.878;6.168;2023-05-01T03:51:27;6.68;;;4.90;;
59147;SDS011;44930;52.878;6.168;2023-05-01T03:53:53;8.40;;;5.53;;
59147;SDS011;44930;52.878;6.168;2023-05-01T03:56:22;7.57;;;5.05;;
59147;SDS011;44930;52.878;6.168;2023-05-01T03:58:50;6.13;;;4.38;;
59147;SDS011;44930;52.878;6.168;2023-05-01T04:01:16;8.23;;;5.22;;
59147;SDS011;44930;52.878;6.168;2023-05-01T04:03:42;12.07;;;6.85;;
59147;SDS011;44930;52.878;6.168;2023-05-01T04:06:08;6.35;;;4.40;;
59147;SDS011;44930;52.878;6.168;2023-05-01T04:08:34;8.35;;;4.85;;
59147;SDS011;44930;52.878;6.168;2023-05-01T04:11:00;7.40;;;5.78;;
59147;SDS011;44930;52.878;6.168;2023-05-01T04:13:25;7.65;;;4.50;;
59147;SDS011;44930;52.878;6.168;2023-05-01T04:15:51;6.80;;;4.47;;
59147;SDS011;44930;52.878;6.168;2023-05-01T04:18:19;8.27;;;5.07;;
59147;SDS011;44930;52.878;6.168;2023-05-01T04:20:44;7.55;;;4.97;;
59147;SDS011;44930;52.878;6.168;2023-05-01T04:23:10;9.68;;;4.70;;
59147;SDS011;44930;52.878;6.168;2023-05-01T04:25:36;8.65;;;4.85;;
59147;SDS011;44930;52.878;6.168;2023-05-01T04:28:02;7.75;;;5.45;;
59147;SDS011;44930;52.878;6.168;2023-05-01T04:30:29;11.63;;;5.30;;
59147;SDS011;44930;52.878;6.168;2023-05-01T04:32:55;6.65;;;4.82;;
59147;SDS011;44930;52.878;6.168;2023-05-01T04:35:22;9.32;;;5.72;;
59147;SDS011;44930;52.878;6.168;2023-05-01T04:37:48;10.52;;;5.38;;
59147;SDS011;44930;52.878;6.168;2023-05-01T04:40:14;11.07;;;5.47;;
59147;SDS011;44930;52.878;6.168;2023-05-01T04:42:39;10.45;;;5.35;;
59147;SDS011;44930;52.878;6.168;2023-05-01T04:45:06;8.20;;;5.60;;
59147;SDS011;44930;52.878;6.168;2023-05-01T04:47:32;8.68;;;5.47;;
59147;SDS011;44930;52.878;6.168;2023-05-01T04:49:57;6.65;;;4.97;;
59147;SDS011;44930;52.878;6.168;2023-05-01T04:52:23;9.05;;;5.53;;
59147;SDS011;44930;52.878;6.168;2023-05-01T04:54:48;7.72;;;4.88;;
59147;SDS011;44930;52.878;6.168;2023-05-01T04:57:14;10.75;;;4.88;;
59147;SDS011;44930;52.878;6.168;2023-05-01T04:59:40;7.53;;;5.50;;
59147;SDS011;44930;52.878;6.168;2023-05-01T05:02:05;11.43;;;5.15;;
59147;SDS011;44930;52.878;6.168;2023-05-01T05:04:31;9.30;;;5.28;;
59147;SDS011;44930;52.878;6.168;2023-05-01T05:06:57;8.55;;;5.38;;
59147;SDS011;44930;52.878;6.168;2023-05-01T05:09:23;10.63;;;5.20;;
59147;SDS011;44930;52.878;6.168;2023-05-01T05:11:48;11.98;;;5.80;;
59147;SDS011;44930;52.878;6.168;2023-05-01T05:14:14;8.40;;;5.18;;
59147;SDS011;44930;52.878;6.168;2023-05-01T05:16:39;10.18;;;5.78;;
59147;SDS011;44930;52.878;6.168;2023-05-01T05:19:05;10.45;;;5.28;;
59147;SDS011;44930;52.878;6.168;2023-05-01T05:21:31;9.70;;;4.95;;
59147;SDS011;44930;52.878;6.168;2023-05-01T05:23:57;11.38;;;5.90;;
59147;SDS011;44930;52.878;6.168;2023-05-01T05:26:25;9.57;;;5.32;;
59147;SDS011;44930;52.878;6.168;2023-05-01T05:28:51;10.45;;;5.85;;
59147;SDS011;44930;52.878;6.168;2023-05-01T05:31:17;8.35;;;4.78;;
59147;SDS011;44930;52.878;6.168;2023-05-01T05:33:43;10.52;;;5.90;;
59147;SDS011;44930;52.878;6.168;2023-05-01T05:36:09;11.13;;;5.88;;
59147;SDS011;44930;52.878;6.168;2023-05-01T05:38:35;8.27;;;5.47;;
59147;SDS011;44930;52.878;6.168;2023-05-01T05:41:00;10.15;;;5.28;;
59147;SDS011;44930;52.878;6.168;2023-05-01T05:43:26;9.60;;;6.03;;
59147;SDS011;44930;52.878;6.168;2023-05-01T05:45:58;10.57;;;5.72;;
59147;SDS011;44930;52.878;6.168;2023-05-01T05:48:24;11.93;;;6.22;;
59147;SDS011;44930;52.878;6.168;2023-05-01T05:50:50;9.00;;;5.75;;
59147;SDS011;44930;52.878;6.168;2023-05-01T05:53:17;10.90;;;5.43;;
59147;SDS011;44930;52.878;6.168;2023-05-01T05:55:43;11.15;;;6.05;;
59147;SDS011;44930;52.878;6.168;2023-05-01T05:58:10;9.75;;;5.75;;
59147;SDS011;44930;52.878;6.168;2023-05-01T06:00:36;9.18;;;4.85;;
59147;SDS011;44930;52.878;6.168;2023-05-01T06:03:01;9.15;;;6.35;;
59147;SDS011;44930;52.878;6.168;2023-05-01T06:05:27;10.48;;;6.13;;
59147;SDS011;44930;52.878;6.168;2023-05-01T06:07:53;9.07;;;5.50;;
59147;SDS011;44930;52.878;6.168;2023-05-01T06:10:19;12.05;;;5.30;;
59147;SDS011;44930;52.878;6.168;2023-05-01T06:12:44;10.85;;;5.57;;
59147;SDS011;44930;52.878;6.168;2023-05-01T06:15:10;9.38;;;5.35;;
59147;SDS011;44930;52.878;6.168;2023-05-01T06:17:40;8.23;;;5.43;;
59147;SDS011;44930;52.878;6.168;2023-05-01T06:20:07;10.90;;;5.78;;
59147;SDS011;44930;52.878;6.168;2023-05-01T06:22:33;12.00;;;6.22;;
59147;SDS011;44930;52.878;6.168;2023-05-01T06:24:59;15.13;;;5.65;;
59147;SDS011;44930;52.878;6.168;2023-05-01T06:27:24;8.55;;;6.10;;
59147;SDS011;44930;52.878;6.168;2023-05-01T06:29:50;12.52;;;5.75;;
59147;SDS011;44930;52.878;6.168;2023-05-01T06:32:16;9.13;;;5.75;;
59147;SDS011;44930;52.878;6.168;2023-05-01T06:34:41;14.15;;;5.80;;
59147;SDS011;44930;52.878;6.168;2023-05-01T06:37:07;11.82;;;5.82;;
59147;SDS011;44930;52.878;6.168;2023-05-01T06:39:32;12.60;;;6.43;;
59147;SDS011;44930;52.878;6.168;2023-05-01T06:41:58;10.52;;;5.70;;
59147;SDS011;44930;52.878;6.168;2023-05-01T06:44:23;10.70;;;6.47;;
59147;SDS011;44930;52.878;6.168;2023-05-01T06:46:49;14.32;;;6.63;;
59147;SDS011;44930;52.878;6.168;2023-05-01T06:49:14;11.45;;;6.25;;
59147;SDS011;44930;52.878;6.168;2023-05-01T06:51:40;11.27;;;5.65;;
59147;SDS011;44930;52.878;6.168;2023-05-01T06:54:06;9.45;;;6.07;;
59147;SDS011;44930;52.878;6.168;2023-05-01T06:56:31;9.60;;;6.25;;
59147;SDS011;44930;52.878;6.168;2023-05-01T06:58:57;12.00;;;5.93;;
59147;SDS011;44930;52.878;6.168;2023-05-01T07:01:22;8.60;;;5.38;;
59147;SDS011;44930;52.878;6.168;2023-05-01T07:03:48;8.50;;;5.75;;
59147;SDS011;44930;52.878;6.168;2023-05-01T07:06:14;9.05;;;5.70;;
59147;SDS011;44930;52.878;6.168;2023-05-01T07:08:39;12.95;;;7.75;;
59147;SDS011;44930;52.878;6.168;2023-05-01T07:11:05;9.98;;;5.85;;
59147;SDS011;44930;52.878;6.168;2023-05-01T07:13:31;11.07;;;6.13;;
59147;SDS011;44930;52.878;6.168;2023-05-01T07:15:57;11.05;;;5.97;;
59147;SDS011;44930;52.878;6.168;2023-05-01T07:18:22;10.93;;;5.53;;
59147;SDS011;44930;52.878;6.168;2023-05-01T07:20:48;9.15;;;5.55;;
59147;SDS011;44930;52.878;6.168;2023-05-01T07:23:14;10.18;;;6.10;;
59147;SDS011;44930;52.878;6.168;2023-05-01T07:25:40;11.32;;;5.55;;
59147;SDS011;44930;52.878;6.168;2023-05-01T07:28:05;8.80;;;5.47;;
59147;SDS011;44930;52.878;6.168;2023-05-01T07:30:32;6.50;;;4.78;;
59147;SDS011;44930;52.878;6.168;2023-05-01T07:32:58;12.90;;;5.55;;
59147;SDS011;44930;52.878;6.168;2023-05-01T07:35:23;15.38;;;5.50;;
59147;SDS011;44930;52.878;6.168;2023-05-01T07:37:49;8.55;;;5.32;;
59147;SDS011;44930;52.878;6.168;2023-05-01T07:40:16;12.68;;;5.72;;
59147;SDS011;44930;52.878;6.168;2023-05-01T07:42:42;10.35;;;5.85;;
59147;SDS011;44930;52.878;6.168;2023-05-01T07:45:07;10.00;;;5.53;;
59147;SDS011;44930;52.878;6.168;2023-05-01T07:47:33;10.45;;;5.50;;
59147;SDS011;44930;52.878;6.168;2023-05-01T07:49:59;9.57;;;5.40;;
59147;SDS011;44930;52.878;6.168;2023-05-01T07:52:25;8.80;;;5.38;;
59147;SDS011;44930;52.878;6.168;2023-05-01T07:54:51;9.85;;;5.13;;
59147;SDS011;44930;52.878;6.168;2023-05-01T07:57:16;11.75;;;4.63;;
59147;SDS011;44930;52.878;6.168;2023-05-01T07:59:42;10.30;;;5.40;;
59147;SDS011;44930;52.878;6.168;2023-05-01T08:02:08;11.63;;;5.55;;
59147;SDS011;44930;52.878;6.168;2023-05-01T08:04:33;10.35;;;4.45;;
59147;SDS011;44930;52.878;6.168;2023-05-01T08:06:59;11.82;;;4.75;;
59147;SDS011;44930;52.878;6.168;2023-05-01T08:09:25;13.30;;;5.13;;
59147;SDS011;44930;52.878;6.168;2023-05-01T08:11:50;9.15;;;4.63;;
59147;SDS011;44930;52.878;6.168;2023-05-01T08:14:16;9.48;;;4.45;;
59147;SDS011;44930;52.878;6.168;2023-05-01T08:16:42;11.25;;;4.70;;
59147;SDS011;44930;52.878;6.168;2023-05-01T08:19:08;8.30;;;4.97;;
59147;SDS011;44930;52.878;6.168;2023-05-01T08:21:33;13.10;;;4.57;;
59147;SDS011;44930;52.878;6.168;2023-05-01T08:23:59;10.30;;;5.00;;
59147;SDS011;44930;52.878;6.168;2023-05-01T08:26:25;9.68;;;4.13;;
59147;SDS011;44930;52.878;6.168;2023-05-01T08:28:51;7.50;;;4.20;;
59147;SDS011;44930;52.878;6.168;2023-05-01T08:31:16;8.30;;;4.38;;
59147;SDS011;44930;52.878;6.168;2023-05-01T08:33:43;7.70;;;3.75;;
59147;SDS011;44930;52.878;6.168;2023-05-01T08:36:09;7.50;;;3.60;;
59147;SDS011;44930;52.878;6.168;2023-05-01T08:38:35;11.18;;;4.35;;
59147;SDS011;44930;52.878;6.168;2023-05-01T08:41:01;9.15;;;3.85;;
59147;SDS011;44930;52.878;6.168;2023-05-01T08:43:30;9.85;;;3.63;;
59147;SDS011;44930;52.878;6.168;2023-05-01T08:46:00;11.50;;;4.80;;
59147;SDS011;44930;52.878;6.168;2023-05-01T08:48:27;9.88;;;4.05;;
59147;SDS011;44930;52.878;6.168;2023-05-01T08:50:54;8.63;;;3.75;;
59147;SDS011;44930;52.878;6.168;2023-05-01T08:53:22;7.20;;;3.35;;
59147;SDS011;44930;52.878;6.168;2023-05-01T08:55:49;8.15;;;3.72;;
59147;SDS011;44930;52.878;6.168;2023-05-01T08:58:17;8.90;;;3.55;;
59147;SDS011;44930;52.878;6.168;2023-05-01T09:00:44;7.70;;;3.17;;
59147;SDS011;44930;52.878;6.168;2023-05-01T09:03:11;9.32;;;4.03;;
59147;SDS011;44930;52.878;6.168;2023-05-01T09:05:40;8.25;;;2.85;;
59147;SDS011;44930;52.878;6.168;2023-05-01T09:08:05;14.45;;;3.40;;
59147;SDS011;44930;52.878;6.168;2023-05-01T09:10:32;6.47;;;2.95;;
59147;SDS011;44930;52.878;6.168;2023-05-01T09:12:59;12.60;;;3.70;;
59147;SDS011;44930;52.878;6.168;2023-05-01T09:15:26;8.38;;;3.15;;
59147;SDS011;44930;52.878;6.168;2023-05-01T09:17:52;5.25;;;2.92;;
59147;SDS011;44930;52.878;6.168;2023-05-01T09:20:19;6.30;;;2.83;;
59147;SDS011;44930;52.878;6.168;2023-05-01T09:22:45;8.15;;;2.70;;
59147;SDS011;44930;52.878;6.168;2023-05-01T09:25:11;6.15;;;3.05;;
59147;SDS011;44930;52.878;6.168;2023-05-01T09:27:36;9.82;;;2.78;;
59147;SDS011;44930;52.878;6.168;2023-05-01T09:30:03;6.50;;;2.25;;
59147;SDS011;44930;52.878;6.168;2023-05-01T09:32:30;9.95;;;2.63;;
59147;SDS011;44930;52.878;6.168;2023-05-01T09:35:12;7.95;;;3.08;;
59147;SDS011;44930;52.878;6.168;2023-05-01T09:37:39;6.50;;;2.70;;
59147;SDS011;44930;52.878;6.168;2023-05-01T09:40:09;5.85;;;2.83;;
59147;SDS011;44930;52.878;6.168;2023-05-01T09:42:39;6.90;;;2.63;;
59147;SDS011;44930;52.878;6.168;2023-05-01T09:45:15;6.63;;;2.03;;
59147;SDS011;44930;52.878;6.168;2023-05-01T09:47:46;4.13;;;1.90;;
59147;SDS011;44930;52.878;6.168;2023-05-01T09:50:28;7.00;;;2.38;;
59147;SDS011;44930;52.878;6.168;2023-05-01T09:52:55;4.95;;;2.22;;
59147;SDS011;44930;52.878;6.168;2023-05-01T09:55:20;3.60;;;1.85;;
59147;SDS011;44930;52.878;6.168;2023-05-01T09:57:47;6.68;;;2.40;;
59147;SDS011;44930;52.878;6.168;2023-05-01T10:00:14;4.63;;;2.15;;
59147;SDS011;44930;52.878;6.168;2023-05-01T10:02:41;4.57;;;1.80;;
59147;SDS011;44930;52.878;6.168;2023-05-01T10:05:08;5.25;;;2.47;;
59147;SDS011;44930;52.878;6.168;2023-05-01T10:07:34;8.23;;;2.13;;
59147;SDS011;44930;52.878;6.168;2023-05-01T10:10:19;3.35;;;1.80;;
59147;SDS011;44930;52.878;6.168;2023-05-01T10:12:45;3.83;;;2.20;;
59147;SDS011;44930;52.878;6.168;2023-05-01T10:15:11;4.93;;;2.20;;
59147;SDS011;44930;52.878;6.168;2023-05-01T10:17:37;5.90;;;2.10;;
59147;SDS011;44930;52.878;6.168;2023-05-01T10:20:05;5.35;;;2.40;;
59147;SDS011;44930;52.878;6.168;2023-05-01T10:22:32;5.70;;;2.58;;
59147;SDS011;44930;52.878;6.168;2023-05-01T10:24:58;6.35;;;3.08;;
59147;SDS011;44930;52.878;6.168;2023-05-01T10:27:25;6.28;;;2.40;;
59147;SDS011;44930;52.878;6.168;2023-05-01T10:29:51;3.80;;;1.60;;
59147;SDS011;44930;52.878;6.168;2023-05-01T10:32:18;6.68;;;1.95;;
59147;SDS011;44930;52.878;6.168;2023-05-01T10:34:49;4.03;;;2.20;;
59147;SDS011;44930;52.878;6.168;2023-05-01T10:37:22;6.13;;;2.28;;
59147;SDS011;44930;52.878;6.168;2023-05-01T10:39:53;3.70;;;1.52;;
59147;SDS011;44930;52.878;6.168;2023-05-01T10:42:18;3.83;;;1.50;;
59147;SDS011;44930;52.878;6.168;2023-05-01T10:44:44;4.43;;;2.00;;
59147;SDS011;44930;52.878;6.168;2023-05-01T10:52:54;6.97;;;2.65;;
59147;SDS011;44930;52.878;6.168;2023-05-01T10:55:39;5.90;;;3.10;;
59147;SDS011;44930;52.878;6.168;2023-05-01T10:58:10;7.43;;;2.67;;
59147;SDS011;44930;52.878;6.168;2023-05-01T11:00:36;6.15;;;2.00;;
59147;SDS011;44930;52.878;6.168;2023-05-01T11:11:59;5.13;;;3.00;;
59147;SDS011;44930;52.878;6.168;2023-05-01T11:19:10;6.32;;;2.13;;
59147;SDS011;44930;52.878;6.168;2023-05-01T11:21:58;4.47;;;1.90;;
59147;SDS011;44930;52.878;6.168;2023-05-01T11:24:31;3.03;;;1.60;;
59147;SDS011;44930;52.878;6.168;2023-05-01T11:26:59;3.65;;;1.40;;
59147;SDS011;44930;52.878;6.168;2023-05-01T11:29:29;6.35;;;1.90;;
59147;SDS011;44930;52.878;6.168;2023-05-01T11:31:59;4.03;;;1.75;;
59147;SDS011;44930;52.878;6.168;2023-05-01T11:34:25;4.25;;;1.80;;
59147;SDS011;44930;52.878;6.168;2023-05-01T11:36:51;5.07;;;2.05;;
59147;SDS011;44930;52.878;6.168;2023-05-01T11:39:17;4.88;;;1.50;;
59147;SDS011;44930;52.878;6.168;2023-05-01T11:41:43;3.60;;;1.50;;
59147;SDS011;44930;52.878;6.168;2023-05-01T11:44:10;5.50;;;1.63;;
59147;SDS011;44930;52.878;6.168;2023-05-01T11:46:37;5.80;;;1.40;;
59147;SDS011;44930;52.878;6.168;2023-05-01T11:49:03;5.55;;;1.42;;
59147;SDS011;44930;52.878;6.168;2023-05-01T11:51:29;3.88;;;1.80;;
59147;SDS011;44930;52.878;6.168;2023-05-01T11:54:02;6.63;;;1.90;;
59147;SDS011;44930;52.878;6.168;2023-05-01T11:56:29;3.28;;;1.60;;
59147;SDS011;44930;52.878;6.168;2023-05-01T11:58:56;3.63;;;1.77;;
59147;SDS011;44930;52.878;6.168;2023-05-01T12:01:36;3.83;;;1.55;;
59147;SDS011;44930;52.878;6.168;2023-05-01T12:04:03;3.13;;;1.13;;
59147;SDS011;44930;52.878;6.168;2023-05-01T12:06:39;5.18;;;1.08;;
59147;SDS011;44930;52.878;6.168;2023-05-01T12:09:10;3.53;;;1.52;;
59147;SDS011;44930;52.878;6.168;2023-05-01T12:11:41;2.40;;;1.30;;
59147;SDS011;44930;52.878;6.168;2023-05-01T12:14:07;3.20;;;1.40;;
59147;SDS011;44930;52.878;6.168;2023-05-01T12:16:34;2.95;;;1.70;;
59147;SDS011;44930;52.878;6.168;2023-05-01T12:19:00;5.47;;;2.10;;
59147;SDS011;44930;52.878;6.168;2023-05-01T12:21:27;4.63;;;1.70;;
59147;SDS011;44930;52.878;6.168;2023-05-01T12:23:52;5.25;;;1.60;;
59147;SDS011;44930;52.878;6.168;2023-05-01T12:26:19;4.05;;;1.20;;
59147;SDS011;44930;52.878;6.168;2023-05-01T12:28:52;3.75;;;1.30;;
59147;SDS011;44930;52.878;6.168;2023-05-01T12:31:22;3.10;;;1.40;;
59147;SDS011;44930;52.878;6.168;2023-05-01T12:33:52;4.13;;;1.40;;
59147;SDS011;44930;52.878;6.168;2023-05-01T12:36:22;4.18;;;1.70;;
59147;SDS011;44930;52.878;6.168;2023-05-01T12:39:08;2.90;;;1.10;;
59147;SDS011;44930;52.878;6.168;2023-05-01T12:41:40;2.83;;;1.27;;
59147;SDS011;44930;52.878;6.168;2023-05-01T12:46:45;3.10;;;1.20;;
59147;SDS011;44930;52.878;6.168;2023-05-01T12:49:17;3.17;;;1.17;;
59147;SDS011;44930;52.878;6.168;2023-05-01T12:51:46;4.97;;;1.50;;
59147;SDS011;44930;52.878;6.168;2023-05-01T12:56:49;2.33;;;1.10;;
59147;SDS011;44930;52.878;6.168;2023-05-01T12:59:20;3.25;;;1.13;;
59147;SDS011;44930;52.878;6.168;2023-05-01T13:01:55;3.05;;;1.20;;
59147;SDS011;44930;52.878;6.168;2023-05-01T13:04:22;2.45;;;1.00;;
59147;SDS011;44930;52.878;6.168;2023-05-01T13:06:48;3.92;;;1.65;;
59147;SDS011;44930;52.878;6.168;2023-05-01T13:09:13;2.28;;;1.10;;
59147;SDS011;44930;52.878;6.168;2023-05-01T13:11:41;2.55;;;1.30;;
59147;SDS011;44930;52.878;6.168;2023-05-01T13:14:07;3.85;;;2.20;;
59147;SDS011;44930;52.878;6.168;2023-05-01T13:16:33;8.45;;;2.75;;
59147;SDS011;44930;52.878;6.168;2023-05-01T13:19:07;5.97;;;2.20;;
59147;SDS011;44930;52.878;6.168;2023-05-01T13:21:33;4.45;;;2.20;;
59147;SDS011;44930;52.878;6.168;2023-05-01T13:23:59;5.40;;;2.40;;
59147;SDS011;44930;52.878;6.168;2023-05-01T13:26:26;5.10;;;2.75;;
59147;SDS011;44930;52.878;6.168;2023-05-01T13:28:53;6.13;;;2.80;;
59147;SDS011;44930;52.878;6.168;2023-05-01T13:31:19;7.60;;;3.00;;
59147;SDS011;44930;52.878;6.168;2023-05-01T13:33:45;8.52;;;3.63;;
59147;SDS011;44930;52.878;6.168;2023-05-01T13:36:14;9.15;;;3.53;;
59147;SDS011;44930;52.878;6.168;2023-05-01T13:38:47;6.93;;;2.90;;
59147;SDS011;44930;52.878;6.168;2023-05-01T13:41:15;7.68;;;3.40;;
59147;SDS011;44930;52.878;6.168;2023-05-01T13:43:47;6.55;;;3.28;;
59147;SDS011;44930;52.878;6.168;2023-05-01T13:46:15;7.40;;;4.10;;
59147;SDS011;44930;52.878;6.168;2023-05-01T13:48:42;4.82;;;3.17;;
59147;SDS011;44930;52.878;6.168;2023-05-01T13:51:08;8.02;;;3.38;;
59147;SDS011;44930;52.878;6.168;2023-05-01T13:53:35;6.30;;;3.80;;
59147;SDS011;44930;52.878;6.168;2023-05-01T13:56:02;6.72;;;3.33;;
59147;SDS011;44930;52.878;6.168;2023-05-01T13:58:28;6.43;;;3.50;;
59147;SDS011;44930;52.878;6.168;2023-05-01T14:00:54;8.20;;;3.80;;
59147;SDS011;44930;52.878;6.168;2023-05-01T14:03:20;8.93;;;3.65;;
59147;SDS011;44930;52.878;6.168;2023-05-01T14:05:46;8.68;;;3.45;;
59147;SDS011;44930;52.878;6.168;2023-05-01T14:08:12;7.43;;;3.55;;
59147;SDS011;44930;52.878;6.168;2023-05-01T14:10:38;4.97;;;2.83;;
59147;SDS011;44930;52.878;6.168;2023-05-01T14:13:04;8.48;;;4.53;;
59147;SDS011;44930;52.878;6.168;2023-05-01T14:15:33;8.02;;;3.10;;
59147;SDS011;44930;52.878;6.168;2023-05-01T14:18:05;6.28;;;3.60;;
59147;SDS011;44930;52.878;6.168;2023-05-01T14:20:31;4.18;;;2.80;;
59147;SDS011;44930;52.878;6.168;2023-05-01T14:22:57;5.28;;;3.92;;
59147;SDS011;44930;52.878;6.168;2023-05-01T14:25:27;9.07;;;4.55;;
59147;SDS011;44930;52.878;6.168;2023-05-01T14:27:59;5.82;;;3.28;;
59147;SDS011;44930;52.878;6.168;2023-05-01T14:30:26;7.30;;;4.38;;
59147;SDS011;44930;52.878;6.168;2023-05-01T14:32:57;7.05;;;3.40;;
59147;SDS011;44930;52.878;6.168;2023-05-01T14:35:28;5.75;;;3.33;;
59147;SDS011;44930;52.878;6.168;2023-05-01T14:37:54;8.43;;;4.10;;
59147;SDS011;44930;52.878;6.168;2023-05-01T14:40:24;6.50;;;3.35;;
59147;SDS011;44930;52.878;6.168;2023-05-01T14:42:53;9.90;;;3.97;;
59147;SDS011;44930;52.878;6.168;2023-05-01T14:45:21;6.43;;;3.65;;
59147;SDS011;44930;52.878;6.168;2023-05-01T14:47:47;6.15;;;3.63;;
59147;SDS011;44930;52.878;6.168;2023-05-01T14:50:23;8.30;;;4.32;;
59147;SDS011;44930;52.878;6.168;2023-05-01T14:52:56;9.23;;;4.15;;
59147;SDS011;44930;52.878;6.168;2023-05-01T14:55:27;11.63;;;4.40;;
59147;SDS011;44930;52.878;6.168;2023-05-01T14:57:56;9.25;;;4.57;;
59147;SDS011;44930;52.878;6.168;2023-05-01T15:00:22;6.55;;;4.45;;
59147;SDS011;44930;52.878;6.168;2023-05-01T15:02:48;9.35;;;4.70;;
59147;SDS011;44930;52.878;6.168;2023-05-01T15:05:14;8.20;;;4.68;;
59147;SDS011;44930;52.878;6.168;2023-05-01T15:07:41;6.65;;;3.90;;
59147;SDS011;44930;52.878;6.168;2023-05-01T15:10:07;6.32;;;4.78;;
59147;SDS011;44930;52.878;6.168;2023-05-01T15:12:33;8.57;;;4.72;;
59147;SDS011;44930;52.878;6.168;2023-05-01T15:14:58;8.00;;;4.47;;
59147;SDS011;44930;52.878;6.168;2023-05-01T15:17:24;6.15;;;3.90;;
59147;SDS011;44930;52.878;6.168;2023-05-01T15:19:50;7.38;;;4.13;;
59147;SDS011;44930;52.878;6.168;2023-05-01T15:22:16;3.67;;;2.83;;
59147;SDS011;44930;52.878;6.168;2023-05-01T15:24:41;5.78;;;3.05;;
59147;SDS011;44930;52.878;6.168;2023-05-01T15:27:07;5.78;;;3.80;;
59147;SDS011;44930;52.878;6.168;2023-05-01T15:29:33;5.85;;;3.55;;
59147;SDS011;44930;52.878;6.168;2023-05-01T15:31:59;5.68;;;3.92;;